Aviation Digital Data Service (ADDS)

Output produced by METARs form (0545 UTC 23 July 2014)
found at http://www.aviationweather.gov/adds/metars/
 
KLNS 230453Z VRB04KT 10SM CLR 23/18 A3005 RMK AO2 SLP174 T02330183 402940194
KLNS 230353Z 19005KT 10SM CLR 23/18 A3006 RMK AO2 SLP177 T02330183
KLNS 230253Z 18004KT 10SM CLR 24/19 A3009 RMK AO2 SLP184 T02390189 58001
KLNS 230153Z 18005KT 10SM CLR 24/19 A3009 RMK AO2 SLP186 T02440189
KLNS 230053Z 18004KT 10SM CLR 25/19 A3008 RMK AO2 SLP184 T02500189
KLNS 222353Z 19008KT 10SM CLR 27/19 A3009 RMK AO2 SLP185 60000 T02670189 10294 20267 53001
KLNS 222253Z 20009KT 10SM FEW040 28/21 A3008 RMK AO2 SLP184 T02780206
KLNS 222153Z 21010KT 10SM FEW038 28/21 A3007 RMK AO2 SLP181 T02830206
KLNS 222053Z 22011KT 10SM FEW038 SCT048 BKN065 29/21 A3008 RMK AO2 SLP184 60000 T02890206 58017
KLNS 221953Z 18010KT 10SM SCT038 BKN055 29/21 A3010 RMK AO2 SLP190 T02890206
KLNS 221853Z 23009KT 10SM FEW038 BKN075 OVC100 28/21 A3013 RMK AO2 RAB35E44 SLP198 P0000 T02830206
KLNS 221753Z 23006KT 10SM SCT034 BKN045 BKN060 29/21 A3014 RMK AO2 SLP201 T02890206 10289 20211 58009
KLNS 221713Z 19004KT 10SM SCT029 BKN041 OVC075 27/21 A3015 RMK AO2 T02720206
KLNS 221653Z 26004KT 10SM BKN029 OVC046 27/21 A3015 RMK AO2 SLP208 T02670206
KLNS 221631Z 23004KT 10SM BKN029 BKN050 BKN060 28/21 A3015 RMK AO2 T02780211
KLNS 221620Z VRB06KT 10SM SCT027 BKN036 BKN050 28/21 A3016 RMK AO2 T02830211
KLNS 221553Z 27005KT 10SM BKN025 BKN031 BKN045 26/21 A3016 RMK AO2 SLP210 T02610211
KLNS 221550Z 33003KT 10SM BKN025 BKN037 BKN045 26/21 A3016 RMK AO2
KLNS 221526Z VRB04KT 10SM SCT024 BKN033 27/21 A3017 RMK AO2 T02670206
KLNS 221453Z 29004KT 10SM BKN024 BKN031 26/21 A3018 RMK AO2 SLP216 T02610206 58009
KLNS 221353Z 00000KT 10SM OVC026 24/20 A3018 RMK AO2 SLP218 T02440200
KLNS 221324Z 26006KT 10SM FEW017 BKN024 24/20 A3019 RMK AO2 T02390200
KLNS 221315Z 23005KT 10SM SCT022 24/21 A3019 RMK AO2 T02440206
KLNS 221253Z 25005KT 10SM BKN021 24/21 A3020 RMK AO2 SLP222 T02390206
KLNS 221153Z 00000KT 4SM BR SCT014 BKN021 21/19 A3020 RMK AO2 SLP225 T02110194 10217 20194 53010
KLNS 221053Z 09003KT 4SM BR BKN016 20/19 A3019 RMK AO2 SLP220 T02000189
KLNS 221041Z 08003KT 4SM BR BKN016 19/18 A3019 RMK AO2 T01940183
KLNS 220953Z AUTO 09003KT 5SM BR BKN049 19/18 A3018 RMK AO2 SLP216 T01940183
KLNS 220853Z AUTO 08003KT 6SM BR OVC055 21/19 A3017 RMK AO2 SLP214 T02060189 55002
KLNS 220753Z AUTO 00000KT 7SM OVC050 21/19 A3017 RMK AO2 SLP213 T02060189
KLNS 220653Z AUTO 10003KT 6SM BR OVC043 20/19 A3017 RMK AO2 SLP214 T02000189 TSNO
KLNS 220553Z AUTO 00000KT 7SM OVC045 20/18 A3018 RMK AO2 SLP215 T02000183 10250 20194 50001
KLNS 220453Z AUTO 12004KT 8SM BKN042 19/18 A3018 RMK AO2 SLP219 T01940178 402670178
KLNS 220353Z AUTO 00000KT 10SM CLR 21/18 A3017 RMK AO2 SLP215 T02110178
KLNS 220253Z AUTO 18003KT 10SM CLR 22/18 A3017 RMK AO2 SLP214 T02170178 50002
KLNS 220153Z 00000KT 10SM CLR 22/18 A3018 RMK AO2 SLP217 T02220178
KLNS 220053Z 00000KT 10SM BKN065 24/17 A3017 RMK AO2 SLP212 T02440172
KLNS 212353Z 20005KT 10SM OVC065 25/18 A3017 RMK AO2 SLP212 T02500178 10267 20250 55002
KLNS 212253Z 15004KT 10SM SCT065 26/17 A3016 RMK AO2 SLP210 T02560172
KLNS 212153Z 00000KT 10SM FEW065 OVC110 26/18 A3016 RMK AO2 SLP210 T02610178
KLNS 212053Z 00000KT 10SM OVC055 26/18 A3017 RMK AO2 SLP215 T02560178 55007
KLNS 211953Z 00000KT 10SM BKN055 OVC075 26/17 A3017 RMK AO2 SLP214 T02610167
KLNS 211853Z 00000KT 10SM OVC060 26/17 A3018 RMK AO2 SLP217 T02560167
KLNS 211753Z 08003KT 10SM OVC065 25/17 A3019 RMK AO2 SLP222 T02500167 10256 20200 56007